Desert Aire, WA

8:12 AM PST on December 20, 2014 (GMT -0800)
Vagabond Aaf / Yakim | Change Station
CLOSE
Current Station
Airport
Location: Vagabond Aaf / Yakim,
Elevation: 1371 ft
Nearby Weather Stations

Elev 1371 ft 46.67 °N, 120.45 °W | Updated 6 minutes ago

Mostly Cloudy
Mostly Cloudy
36 °F
Feels Like 36 °F
N
1
Wind Variable Wind from Variable

Today
High -- | Low -- °F
--% Chance of Precip.
Yesterday
High -- | Low -- °F
Precip. -- in
7:40 AM 4:13 PM
Waning Crescent, 3% visible
Pressure 29.77 in
Visibility 3.0 miles
Clouds Overcast 400 ft
Dew Point 36 °F
Humidity 100%
Rainfall 0.15 in
Snow Depth Not available.
UV 0 out of 12
Pollen .50 out of 12
Air Quality Not available.
Flu Activity Not available.
SPECI K1YT 201606Z AUTO VRB01KT 3SM -RA BR OVC004 02/02 A2977 RMK AO2 SHRAE1557RAB1557

More Conditions Fewer Conditions

Pressure 29.77 in
Visibility 3.0 miles
Clouds Overcast 400 ft
Dew Point 36 °F
Humidity 100%
Rainfall 0.15 in
Snow Depth Not available.
UV 0 out of 12
Pollen .50 out of 12
Air Quality Not available.
Flu Activity Not available.
SPECI K1YT 201606Z AUTO VRB01KT 3SM -RA BR OVC004 02/02 A2977 RMK AO2 SHRAE1557RAB1557

More Conditions Fewer Conditions

10-Day Weather Forecast

Almanac

Astronomy

Dec. 20, 2014 Rise Set
Actual Time
Civil Twilight
Nautical Twilight
Astronomical Twilight
Moon
Length of Visible Light
Length of Day
Tomorrow will be .
, % of the Moon is Illuminated

Today's Extremes

State Highs State Lows

Community

WunderPhotos

Upload Photos

1,779,212 photos uploaded!

WunderBlogs® & News

Nearby

Air Quality

  Air Quality AQ Index Pollutant
Not available.

Snow Depth

Station Depth Elevation

Earthquake Activity

City Distance Mag. Time & Date
Minimum magnitude displayed is 2.5.

Coastal Water Temperatures

Place Temperature

Nearby Weather Stations